sensor_id;sensor_type;location;lat;lon;timestamp;P1;durP1;ratioP1;P2;durP2;ratioP2
77522;SDS011;66637;-29.628;-49.938;2023-02-27T00:01:28;3.53;;;2.20;;
77522;SDS011;66637;-29.628;-49.938;2023-02-27T00:04:02;4.18;;;2.28;;
77522;SDS011;66637;-29.628;-49.938;2023-02-27T00:06:32;3.97;;;2.60;;
77522;SDS011;66637;-29.628;-49.938;2023-02-27T00:09:04;4.75;;;2.58;;
77522;SDS011;66637;-29.628;-49.938;2023-02-27T00:11:36;7.43;;;2.60;;
77522;SDS011;66637;-29.628;-49.938;2023-02-27T00:14:09;5.90;;;2.53;;
77522;SDS011;66637;-29.628;-49.938;2023-02-27T00:16:41;6.00;;;2.30;;
77522;SDS011;66637;-29.628;-49.938;2023-02-27T00:19:12;6.88;;;2.80;;
77522;SDS011;66637;-29.628;-49.938;2023-02-27T00:21:42;5.38;;;2.63;;
77522;SDS011;66637;-29.628;-49.938;2023-02-27T00:24:14;5.03;;;2.72;;
77522;SDS011;66637;-29.628;-49.938;2023-02-27T00:26:46;4.57;;;2.60;;
77522;SDS011;66637;-29.628;-49.938;2023-02-27T00:29:17;5.13;;;2.53;;
77522;SDS011;66637;-29.628;-49.938;2023-02-27T00:31:51;6.45;;;2.63;;
77522;SDS011;66637;-29.628;-49.938;2023-02-27T00:34:23;6.28;;;2.80;;
77522;SDS011;66637;-29.628;-49.938;2023-02-27T00:36:54;5.13;;;2.65;;
77522;SDS011;66637;-29.628;-49.938;2023-02-27T00:39:24;4.22;;;2.35;;
77522;SDS011;66637;-29.628;-49.938;2023-02-27T00:41:55;3.88;;;2.65;;
77522;SDS011;66637;-29.628;-49.938;2023-02-27T00:44:26;3.80;;;2.75;;
77522;SDS011;66637;-29.628;-49.938;2023-02-27T00:46:57;5.10;;;2.75;;
77522;SDS011;66637;-29.628;-49.938;2023-02-27T00:49:27;4.50;;;2.60;;
77522;SDS011;66637;-29.628;-49.938;2023-02-27T00:51:57;7.57;;;2.70;;
77522;SDS011;66637;-29.628;-49.938;2023-02-27T00:54:30;8.48;;;2.78;;
77522;SDS011;66637;-29.628;-49.938;2023-02-27T00:57:02;6.78;;;2.30;;
77522;SDS011;66637;-29.628;-49.938;2023-02-27T00:59:33;7.47;;;2.60;;
77522;SDS011;66637;-29.628;-49.938;2023-02-27T01:02:03;6.13;;;2.80;;
77522;SDS011;66637;-29.628;-49.938;2023-02-27T01:04:34;4.40;;;2.80;;
77522;SDS011;66637;-29.628;-49.938;2023-02-27T01:07:06;6.20;;;2.75;;
77522;SDS011;66637;-29.628;-49.938;2023-02-27T01:09:38;5.88;;;3.17;;
77522;SDS011;66637;-29.628;-49.938;2023-02-27T01:12:08;4.55;;;2.90;;
77522;SDS011;66637;-29.628;-49.938;2023-02-27T01:14:39;4.97;;;3.05;;
77522;SDS011;66637;-29.628;-49.938;2023-02-27T01:17:09;3.88;;;2.50;;
77522;SDS011;66637;-29.628;-49.938;2023-02-27T01:19:39;6.13;;;2.58;;
77522;SDS011;66637;-29.628;-49.938;2023-02-27T01:22:10;5.22;;;2.88;;
77522;SDS011;66637;-29.628;-49.938;2023-02-27T01:24:40;7.32;;;2.70;;
77522;SDS011;66637;-29.628;-49.938;2023-02-27T01:27:12;7.28;;;2.80;;
77522;SDS011;66637;-29.628;-49.938;2023-02-27T01:29:44;7.60;;;2.90;;
77522;SDS011;66637;-29.628;-49.938;2023-02-27T01:32:14;6.18;;;2.65;;
77522;SDS011;66637;-29.628;-49.938;2023-02-27T01:34:45;4.97;;;2.65;;
77522;SDS011;66637;-29.628;-49.938;2023-02-27T01:37:19;5.85;;;3.00;;
77522;SDS011;66637;-29.628;-49.938;2023-02-27T01:39:49;4.15;;;2.70;;
77522;SDS011;66637;-29.628;-49.938;2023-02-27T01:42:21;4.65;;;2.90;;
77522;SDS011;66637;-29.628;-49.938;2023-02-27T01:47:43;6.53;;;2.55;;
77522;SDS011;66637;-29.628;-49.938;2023-02-27T01:50:18;6.93;;;3.33;;
77522;SDS011;66637;-29.628;-49.938;2023-02-27T01:52:55;5.05;;;2.65;;
77522;SDS011;66637;-29.628;-49.938;2023-02-27T01:55:29;6.85;;;2.70;;
77522;SDS011;66637;-29.628;-49.938;2023-02-27T01:58:03;4.35;;;2.80;;
77522;SDS011;66637;-29.628;-49.938;2023-02-27T02:00:36;5.65;;;3.13;;
77522;SDS011;66637;-29.628;-49.938;2023-02-27T02:06:13;6.32;;;3.10;;
77522;SDS011;66637;-29.628;-49.938;2023-02-27T02:08:54;5.88;;;3.47;;
77522;SDS011;66637;-29.628;-49.938;2023-02-27T02:11:26;6.20;;;3.38;;
77522;SDS011;66637;-29.628;-49.938;2023-02-27T02:13:57;5.72;;;3.33;;
77522;SDS011;66637;-29.628;-49.938;2023-02-27T02:28:08;6.57;;;3.72;;
77522;SDS011;66637;-29.628;-49.938;2023-02-27T02:33:51;6.82;;;3.63;;
77522;SDS011;66637;-29.628;-49.938;2023-02-27T02:47:58;5.70;;;3.40;;
77522;SDS011;66637;-29.628;-49.938;2023-02-27T02:53:09;6.80;;;3.35;;
77522;SDS011;66637;-29.628;-49.938;2023-02-27T02:55:47;7.72;;;3.63;;
77522;SDS011;66637;-29.628;-49.938;2023-02-27T03:03:42;7.53;;;3.50;;
77522;SDS011;66637;-29.628;-49.938;2023-02-27T03:06:25;6.18;;;3.67;;
77522;SDS011;66637;-29.628;-49.938;2023-02-27T03:11:38;6.50;;;3.50;;
77522;SDS011;66637;-29.628;-49.938;2023-02-27T03:16:52;7.63;;;3.28;;
77522;SDS011;66637;-29.628;-49.938;2023-02-27T03:20:10;5.28;;;3.40;;
77522;SDS011;66637;-29.628;-49.938;2023-02-27T03:22:27;6.30;;;3.55;;
77522;SDS011;66637;-29.628;-49.938;2023-02-27T03:25:01;6.30;;;3.50;;
77522;SDS011;66637;-29.628;-49.938;2023-02-27T03:27:42;11.10;;;4.10;;
77522;SDS011;66637;-29.628;-49.938;2023-02-27T03:30:30;10.45;;;3.67;;
77522;SDS011;66637;-29.628;-49.938;2023-02-27T03:50:49;4.97;;;3.38;;
77522;SDS011;66637;-29.628;-49.938;2023-02-27T03:53:28;6.70;;;3.53;;
77522;SDS011;66637;-29.628;-49.938;2023-02-27T03:56:02;8.48;;;3.40;;
77522;SDS011;66637;-29.628;-49.938;2023-02-27T03:58:35;7.20;;;3.53;;
77522;SDS011;66637;-29.628;-49.938;2023-02-27T04:01:05;4.57;;;3.22;;
77522;SDS011;66637;-29.628;-49.938;2023-02-27T04:03:36;5.68;;;3.30;;
77522;SDS011;66637;-29.628;-49.938;2023-02-27T04:06:16;10.18;;;3.70;;
77522;SDS011;66637;-29.628;-49.938;2023-02-27T04:12:36;4.53;;;3.13;;
77522;SDS011;66637;-29.628;-49.938;2023-02-27T04:20:49;7.15;;;2.97;;
77522;SDS011;66637;-29.628;-49.938;2023-02-27T04:23:31;6.45;;;3.20;;
77522;SDS011;66637;-29.628;-49.938;2023-02-27T04:26:09;4.60;;;3.10;;
77522;SDS011;66637;-29.628;-49.938;2023-02-27T04:29:03;5.35;;;2.92;;
77522;SDS011;66637;-29.628;-49.938;2023-02-27T04:34:30;5.95;;;2.88;;
77522;SDS011;66637;-29.628;-49.938;2023-02-27T04:37:06;9.40;;;2.60;;
77522;SDS011;66637;-29.628;-49.938;2023-02-27T04:40:06;4.55;;;2.78;;
77522;SDS011;66637;-29.628;-49.938;2023-02-27T04:42:44;4.65;;;2.50;;
77522;SDS011;66637;-29.628;-49.938;2023-02-27T04:45:19;5.28;;;2.80;;
77522;SDS011;66637;-29.628;-49.938;2023-02-27T04:48:04;4.10;;;2.67;;
77522;SDS011;66637;-29.628;-49.938;2023-02-27T04:50:58;6.88;;;2.63;;
77522;SDS011;66637;-29.628;-49.938;2023-02-27T04:53:36;5.72;;;3.20;;
77522;SDS011;66637;-29.628;-49.938;2023-02-27T04:56:18;4.50;;;2.55;;
77522;SDS011;66637;-29.628;-49.938;2023-02-27T04:58:57;7.60;;;2.75;;
77522;SDS011;66637;-29.628;-49.938;2023-02-27T05:01:36;7.32;;;3.10;;
77522;SDS011;66637;-29.628;-49.938;2023-02-27T05:04:10;5.70;;;2.75;;
77522;SDS011;66637;-29.628;-49.938;2023-02-27T05:06:44;5.85;;;2.85;;
77522;SDS011;66637;-29.628;-49.938;2023-02-27T05:14:37;6.55;;;2.92;;
77522;SDS011;66637;-29.628;-49.938;2023-02-27T05:17:24;5.95;;;2.65;;
77522;SDS011;66637;-29.628;-49.938;2023-02-27T05:20:01;4.47;;;2.70;;
77522;SDS011;66637;-29.628;-49.938;2023-02-27T05:22:39;6.63;;;3.00;;
77522;SDS011;66637;-29.628;-49.938;2023-02-27T05:25:48;4.82;;;2.70;;
77522;SDS011;66637;-29.628;-49.938;2023-02-27T05:28:32;4.85;;;2.55;;
77522;SDS011;66637;-29.628;-49.938;2023-02-27T05:41:02;5.53;;;2.92;;
77522;SDS011;66637;-29.628;-49.938;2023-02-27T05:43:45;3.95;;;2.72;;
77522;SDS011;66637;-29.628;-49.938;2023-02-27T05:46:20;6.18;;;2.85;;
77522;SDS011;66637;-29.628;-49.938;2023-02-27T05:49:10;4.32;;;2.90;;
77522;SDS011;66637;-29.628;-49.938;2023-02-27T05:51:48;9.10;;;2.72;;
77522;SDS011;66637;-29.628;-49.938;2023-02-27T05:54:25;4.95;;;2.50;;
77522;SDS011;66637;-29.628;-49.938;2023-02-27T05:57:03;5.30;;;2.30;;
77522;SDS011;66637;-29.628;-49.938;2023-02-27T05:59:43;7.18;;;2.53;;
77522;SDS011;66637;-29.628;-49.938;2023-02-27T06:02:18;8.15;;;2.63;;
77522;SDS011;66637;-29.628;-49.938;2023-02-27T06:04:48;3.75;;;2.45;;
77522;SDS011;66637;-29.628;-49.938;2023-02-27T06:07:19;4.03;;;2.42;;
77522;SDS011;66637;-29.628;-49.938;2023-02-27T06:09:52;6.47;;;2.70;;
77522;SDS011;66637;-29.628;-49.938;2023-02-27T06:12:22;8.60;;;2.63;;
77522;SDS011;66637;-29.628;-49.938;2023-02-27T06:14:53;5.40;;;2.63;;
77522;SDS011;66637;-29.628;-49.938;2023-02-27T06:17:24;7.20;;;2.80;;
77522;SDS011;66637;-29.628;-49.938;2023-02-27T06:19:55;6.70;;;2.47;;
77522;SDS011;66637;-29.628;-49.938;2023-02-27T06:22:25;6.30;;;2.60;;
77522;SDS011;66637;-29.628;-49.938;2023-02-27T06:24:56;4.15;;;2.40;;
77522;SDS011;66637;-29.628;-49.938;2023-02-27T06:27:28;5.25;;;2.42;;
77522;SDS011;66637;-29.628;-49.938;2023-02-27T06:30:00;5.25;;;2.40;;
77522;SDS011;66637;-29.628;-49.938;2023-02-27T06:32:31;3.70;;;2.30;;
77522;SDS011;66637;-29.628;-49.938;2023-02-27T06:35:02;4.38;;;2.40;;
77522;SDS011;66637;-29.628;-49.938;2023-02-27T06:37:34;4.78;;;2.63;;
77522;SDS011;66637;-29.628;-49.938;2023-02-27T06:40:05;3.78;;;2.50;;
77522;SDS011;66637;-29.628;-49.938;2023-02-27T06:42:43;8.45;;;2.70;;
77522;SDS011;66637;-29.628;-49.938;2023-02-27T06:45:14;5.13;;;2.72;;
77522;SDS011;66637;-29.628;-49.938;2023-02-27T06:47:46;4.60;;;2.28;;
77522;SDS011;66637;-29.628;-49.938;2023-02-27T06:50:17;5.10;;;2.60;;
77522;SDS011;66637;-29.628;-49.938;2023-02-27T06:52:48;4.72;;;2.60;;
77522;SDS011;66637;-29.628;-49.938;2023-02-27T06:55:18;3.92;;;2.40;;
77522;SDS011;66637;-29.628;-49.938;2023-02-27T06:57:50;4.88;;;2.60;;
77522;SDS011;66637;-29.628;-49.938;2023-02-27T07:00:20;4.70;;;2.40;;
77522;SDS011;66637;-29.628;-49.938;2023-02-27T07:02:51;3.13;;;2.42;;
77522;SDS011;66637;-29.628;-49.938;2023-02-27T07:05:21;4.72;;;2.20;;
77522;SDS011;66637;-29.628;-49.938;2023-02-27T07:07:53;4.03;;;2.20;;
77522;SDS011;66637;-29.628;-49.938;2023-02-27T07:10:25;4.93;;;2.40;;
77522;SDS011;66637;-29.628;-49.938;2023-02-27T07:12:56;4.97;;;2.50;;
77522;SDS011;66637;-29.628;-49.938;2023-02-27T07:15:26;6.28;;;2.42;;
77522;SDS011;66637;-29.628;-49.938;2023-02-27T07:17:58;4.45;;;2.42;;
77522;SDS011;66637;-29.628;-49.938;2023-02-27T07:20:28;5.53;;;2.78;;
77522;SDS011;66637;-29.628;-49.938;2023-02-27T07:22:58;4.28;;;2.30;;
77522;SDS011;66637;-29.628;-49.938;2023-02-27T07:25:29;8.23;;;2.15;;
77522;SDS011;66637;-29.628;-49.938;2023-02-27T07:27:59;3.42;;;2.10;;
77522;SDS011;66637;-29.628;-49.938;2023-02-27T07:30:29;4.22;;;2.50;;
77522;SDS011;66637;-29.628;-49.938;2023-02-27T07:33:00;4.93;;;2.55;;
77522;SDS011;66637;-29.628;-49.938;2023-02-27T07:35:30;6.28;;;2.42;;
77522;SDS011;66637;-29.628;-49.938;2023-02-27T07:38:02;3.80;;;2.70;;
77522;SDS011;66637;-29.628;-49.938;2023-02-27T07:40:32;3.47;;;2.20;;
77522;SDS011;66637;-29.628;-49.938;2023-02-27T07:43:02;5.13;;;2.30;;
77522;SDS011;66637;-29.628;-49.938;2023-02-27T07:45:33;3.30;;;2.40;;
77522;SDS011;66637;-29.628;-49.938;2023-02-27T07:48:03;4.13;;;2.55;;
77522;SDS011;66637;-29.628;-49.938;2023-02-27T07:50:33;4.65;;;2.13;;
77522;SDS011;66637;-29.628;-49.938;2023-02-27T07:53:04;5.50;;;2.40;;
77522;SDS011;66637;-29.628;-49.938;2023-02-27T07:55:37;5.15;;;2.13;;
77522;SDS011;66637;-29.628;-49.938;2023-02-27T07:58:07;8.40;;;2.40;;
77522;SDS011;66637;-29.628;-49.938;2023-02-27T08:00:37;6.10;;;2.47;;
77522;SDS011;66637;-29.628;-49.938;2023-02-27T08:03:09;7.13;;;2.10;;
77522;SDS011;66637;-29.628;-49.938;2023-02-27T08:05:41;3.85;;;2.30;;
77522;SDS011;66637;-29.628;-49.938;2023-02-27T08:08:11;3.15;;;2.28;;
77522;SDS011;66637;-29.628;-49.938;2023-02-27T08:10:41;6.28;;;2.70;;
77522;SDS011;66637;-29.628;-49.938;2023-02-27T08:13:11;4.28;;;2.67;;
77522;SDS011;66637;-29.628;-49.938;2023-02-27T08:15:47;4.75;;;2.30;;
77522;SDS011;66637;-29.628;-49.938;2023-02-27T08:18:17;4.65;;;2.17;;
77522;SDS011;66637;-29.628;-49.938;2023-02-27T08:20:49;4.00;;;2.20;;
77522;SDS011;66637;-29.628;-49.938;2023-02-27T08:23:20;4.32;;;2.60;;
77522;SDS011;66637;-29.628;-49.938;2023-02-27T08:25:51;3.95;;;2.15;;
77522;SDS011;66637;-29.628;-49.938;2023-02-27T08:28:21;5.93;;;2.42;;
77522;SDS011;66637;-29.628;-49.938;2023-02-27T08:30:51;6.43;;;2.22;;
77522;SDS011;66637;-29.628;-49.938;2023-02-27T08:33:23;3.28;;;2.38;;
77522;SDS011;66637;-29.628;-49.938;2023-02-27T08:35:55;3.33;;;2.17;;
77522;SDS011;66637;-29.628;-49.938;2023-02-27T08:38:25;4.30;;;2.15;;
77522;SDS011;66637;-29.628;-49.938;2023-02-27T08:40:55;3.55;;;2.33;;
77522;SDS011;66637;-29.628;-49.938;2023-02-27T08:43:25;4.80;;;2.35;;
77522;SDS011;66637;-29.628;-49.938;2023-02-27T08:45:55;4.47;;;2.13;;
77522;SDS011;66637;-29.628;-49.938;2023-02-27T08:48:27;6.22;;;2.88;;
77522;SDS011;66637;-29.628;-49.938;2023-02-27T08:50:57;4.18;;;2.17;;
77522;SDS011;66637;-29.628;-49.938;2023-02-27T08:53:27;6.35;;;2.90;;
77522;SDS011;66637;-29.628;-49.938;2023-02-27T08:55:57;3.05;;;2.10;;
77522;SDS011;66637;-29.628;-49.938;2023-02-27T08:58:29;5.60;;;2.25;;
77522;SDS011;66637;-29.628;-49.938;2023-02-27T09:00:59;4.22;;;2.70;;
77522;SDS011;66637;-29.628;-49.938;2023-02-27T09:03:34;4.68;;;2.22;;
77522;SDS011;66637;-29.628;-49.938;2023-02-27T09:06:06;4.78;;;2.40;;
77522;SDS011;66637;-29.628;-49.938;2023-02-27T09:08:36;6.43;;;2.50;;
77522;SDS011;66637;-29.628;-49.938;2023-02-27T09:11:07;5.18;;;2.75;;
77522;SDS011;66637;-29.628;-49.938;2023-02-27T09:13:37;6.32;;;2.60;;
77522;SDS011;66637;-29.628;-49.938;2023-02-27T09:16:07;3.70;;;2.55;;
77522;SDS011;66637;-29.628;-49.938;2023-02-27T09:18:39;4.82;;;2.70;;
77522;SDS011;66637;-29.628;-49.938;2023-02-27T09:21:09;4.03;;;2.47;;
77522;SDS011;66637;-29.628;-49.938;2023-02-27T09:23:40;4.18;;;2.42;;
77522;SDS011;66637;-29.628;-49.938;2023-02-27T09:26:11;5.90;;;2.65;;
77522;SDS011;66637;-29.628;-49.938;2023-02-27T09:28:41;5.95;;;2.35;;
77522;SDS011;66637;-29.628;-49.938;2023-02-27T09:31:12;4.82;;;2.20;;
77522;SDS011;66637;-29.628;-49.938;2023-02-27T09:33:42;5.32;;;2.20;;
77522;SDS011;66637;-29.628;-49.938;2023-02-27T09:36:13;4.30;;;2.22;;
77522;SDS011;66637;-29.628;-49.938;2023-02-27T09:38:45;4.50;;;2.60;;
77522;SDS011;66637;-29.628;-49.938;2023-02-27T09:41:22;4.78;;;2.13;;
77522;SDS011;66637;-29.628;-49.938;2023-02-27T09:44:45;4.28;;;2.20;;
77522;SDS011;66637;-29.628;-49.938;2023-02-27T09:49:58;4.05;;;2.35;;
77522;SDS011;66637;-29.628;-49.938;2023-02-27T09:52:50;4.88;;;2.00;;
77522;SDS011;66637;-29.628;-49.938;2023-02-27T09:55:21;3.10;;;2.10;;
77522;SDS011;66637;-29.628;-49.938;2023-02-27T09:57:58;3.97;;;2.20;;
77522;SDS011;66637;-29.628;-49.938;2023-02-27T10:01:18;4.85;;;2.17;;
77522;SDS011;66637;-29.628;-49.938;2023-02-27T10:07:37;3.95;;;2.22;;
77522;SDS011;66637;-29.628;-49.938;2023-02-27T10:15:42;3.42;;;2.25;;
77522;SDS011;66637;-29.628;-49.938;2023-02-27T10:18:20;6.13;;;2.70;;
77522;SDS011;66637;-29.628;-49.938;2023-02-27T10:26:02;6.80;;;2.45;;
77522;SDS011;66637;-29.628;-49.938;2023-02-27T10:28:33;6.18;;;2.22;;
77522;SDS011;66637;-29.628;-49.938;2023-02-27T10:31:03;6.55;;;2.28;;
77522;SDS011;66637;-29.628;-49.938;2023-02-27T10:33:48;3.20;;;2.08;;
77522;SDS011;66637;-29.628;-49.938;2023-02-27T10:36:20;4.43;;;2.10;;
77522;SDS011;66637;-29.628;-49.938;2023-02-27T10:39:04;4.25;;;2.42;;
77522;SDS011;66637;-29.628;-49.938;2023-02-27T10:41:37;5.25;;;2.00;;
77522;SDS011;66637;-29.628;-49.938;2023-02-27T10:44:13;4.97;;;2.50;;
77522;SDS011;66637;-29.628;-49.938;2023-02-27T10:46:46;6.10;;;2.67;;
77522;SDS011;66637;-29.628;-49.938;2023-02-27T10:49:19;3.08;;;2.15;;
77522;SDS011;66637;-29.628;-49.938;2023-02-27T10:52:04;5.22;;;2.70;;
77522;SDS011;66637;-29.628;-49.938;2023-02-27T10:54:42;7.53;;;2.50;;
77522;SDS011;66637;-29.628;-49.938;2023-02-27T10:57:22;5.75;;;2.88;;
77522;SDS011;66637;-29.628;-49.938;2023-02-27T10:59:57;6.63;;;2.70;;
77522;SDS011;66637;-29.628;-49.938;2023-02-27T11:02:41;5.45;;;2.60;;
77522;SDS011;66637;-29.628;-49.938;2023-02-27T11:05:18;7.43;;;2.88;;
77522;SDS011;66637;-29.628;-49.938;2023-02-27T11:08:12;4.63;;;2.85;;
77522;SDS011;66637;-29.628;-49.938;2023-02-27T11:13:37;5.10;;;2.50;;
77522;SDS011;66637;-29.628;-49.938;2023-02-27T11:16:11;4.50;;;2.65;;
77522;SDS011;66637;-29.628;-49.938;2023-02-27T11:18:43;7.03;;;3.00;;
77522;SDS011;66637;-29.628;-49.938;2023-02-27T11:23:59;7.43;;;3.20;;
77522;SDS011;66637;-29.628;-49.938;2023-02-27T11:26:36;4.85;;;2.92;;
77522;SDS011;66637;-29.628;-49.938;2023-02-27T11:32:01;6.10;;;2.90;;
77522;SDS011;66637;-29.628;-49.938;2023-02-27T11:34:45;5.18;;;2.83;;
77522;SDS011;66637;-29.628;-49.938;2023-02-27T11:37:34;6.25;;;3.10;;
77522;SDS011;66637;-29.628;-49.938;2023-02-27T11:48:10;5.10;;;3.00;;
77522;SDS011;66637;-29.628;-49.938;2023-02-27T11:56:25;7.70;;;2.65;;
77522;SDS011;66637;-29.628;-49.938;2023-02-27T12:07:31;6.22;;;3.25;;
77522;SDS011;66637;-29.628;-49.938;2023-02-27T12:10:17;3.28;;;2.92;;
77522;SDS011;66637;-29.628;-49.938;2023-02-27T12:13:01;5.97;;;2.90;;
77522;SDS011;66637;-29.628;-49.938;2023-02-27T12:15:46;6.60;;;2.83;;
77522;SDS011;66637;-29.628;-49.938;2023-02-27T12:18:38;5.50;;;2.97;;
77522;SDS011;66637;-29.628;-49.938;2023-02-27T12:21:23;3.47;;;2.90;;
77522;SDS011;66637;-29.628;-49.938;2023-02-27T12:26:41;7.05;;;3.40;;
77522;SDS011;66637;-29.628;-49.938;2023-02-27T12:31:59;6.45;;;3.70;;
77522;SDS011;66637;-29.628;-49.938;2023-02-27T12:37:25;5.47;;;2.80;;
77522;SDS011;66637;-29.628;-49.938;2023-02-27T12:39:58;5.28;;;2.88;;
77522;SDS011;66637;-29.628;-49.938;2023-02-27T12:56:22;10.82;;;4.15;;
77522;SDS011;66637;-29.628;-49.938;2023-02-27T12:59:46;32.05;;;6.70;;
77522;SDS011;66637;-29.628;-49.938;2023-02-27T13:10:39;23.60;;;5.85;;
77522;SDS011;66637;-29.628;-49.938;2023-02-27T13:13:38;21.55;;;5.15;;
77522;SDS011;66637;-29.628;-49.938;2023-02-27T13:19:27;22.67;;;5.45;;
77522;SDS011;66637;-29.628;-49.938;2023-02-27T13:22:50;25.67;;;6.35;;
77522;SDS011;66637;-29.628;-49.938;2023-02-27T13:25:10;23.30;;;6.03;;
77522;SDS011;66637;-29.628;-49.938;2023-02-27T13:27:51;20.45;;;5.50;;
77522;SDS011;66637;-29.628;-49.938;2023-02-27T13:36:11;28.15;;;6.32;;
77522;SDS011;66637;-29.628;-49.938;2023-02-27T13:38:55;28.67;;;5.65;;
77522;SDS011;66637;-29.628;-49.938;2023-02-27T13:46:49;16.52;;;4.45;;
77522;SDS011;66637;-29.628;-49.938;2023-02-27T13:49:24;15.60;;;4.80;;
77522;SDS011;66637;-29.628;-49.938;2023-02-27T13:52:03;15.48;;;5.28;;
77522;SDS011;66637;-29.628;-49.938;2023-02-27T13:54:38;17.40;;;4.40;;
77522;SDS011;66637;-29.628;-49.938;2023-02-27T13:57:18;17.27;;;4.82;;
77522;SDS011;66637;-29.628;-49.938;2023-02-27T14:02:28;24.40;;;5.03;;
77522;SDS011;66637;-29.628;-49.938;2023-02-27T14:05:28;23.73;;;5.13;;
77522;SDS011;66637;-29.628;-49.938;2023-02-27T14:08:08;17.38;;;5.47;;
77522;SDS011;66637;-29.628;-49.938;2023-02-27T14:10:51;18.25;;;4.65;;
77522;SDS011;66637;-29.628;-49.938;2023-02-27T14:24:35;16.63;;;5.13;;
77522;SDS011;66637;-29.628;-49.938;2023-02-27T14:27:28;26.27;;;5.47;;
77522;SDS011;66637;-29.628;-49.938;2023-02-27T14:30:03;20.67;;;4.97;;
77522;SDS011;66637;-29.628;-49.938;2023-02-27T14:32:39;30.52;;;5.70;;
77522;SDS011;66637;-29.628;-49.938;2023-02-27T14:35:11;20.30;;;4.90;;
77522;SDS011;66637;-29.628;-49.938;2023-02-27T14:37:44;25.77;;;5.80;;
77522;SDS011;66637;-29.628;-49.938;2023-02-27T14:40:19;16.60;;;4.68;;
77522;SDS011;66637;-29.628;-49.938;2023-02-27T14:43:12;14.40;;;3.40;;
77522;SDS011;66637;-29.628;-49.938;2023-02-27T14:45:53;23.88;;;5.50;;
77522;SDS011;66637;-29.628;-49.938;2023-02-27T14:48:26;16.05;;;3.80;;
77522;SDS011;66637;-29.628;-49.938;2023-02-27T14:50:57;14.15;;;3.88;;
77522;SDS011;66637;-29.628;-49.938;2023-02-27T14:53:30;14.45;;;4.80;;
77522;SDS011;66637;-29.628;-49.938;2023-02-27T14:56:04;25.83;;;6.28;;
77522;SDS011;66637;-29.628;-49.938;2023-02-27T14:58:34;18.77;;;4.03;;
77522;SDS011;66637;-29.628;-49.938;2023-02-27T15:01:05;15.00;;;4.68;;
77522;SDS011;66637;-29.628;-49.938;2023-02-27T15:06:15;15.30;;;4.63;;
77522;SDS011;66637;-29.628;-49.938;2023-02-27T15:08:52;22.73;;;5.10;;
77522;SDS011;66637;-29.628;-49.938;2023-02-27T15:11:25;20.67;;;4.30;;
77522;SDS011;66637;-29.628;-49.938;2023-02-27T15:14:00;18.02;;;4.70;;
77522;SDS011;66637;-29.628;-49.938;2023-02-27T15:16:37;26.50;;;5.70;;
77522;SDS011;66637;-29.628;-49.938;2023-02-27T15:21:47;20.50;;;4.97;;
77522;SDS011;66637;-29.628;-49.938;2023-02-27T15:27:12;14.48;;;4.63;;
77522;SDS011;66637;-29.628;-49.938;2023-02-27T15:29:52;17.48;;;4.40;;
77522;SDS011;66637;-29.628;-49.938;2023-02-27T15:32:34;13.95;;;3.92;;
77522;SDS011;66637;-29.628;-49.938;2023-02-27T15:35:14;15.65;;;3.55;;
77522;SDS011;66637;-29.628;-49.938;2023-02-27T15:37:54;19.58;;;4.32;;
77522;SDS011;66637;-29.628;-49.938;2023-02-27T15:40:27;19.02;;;4.50;;
77522;SDS011;66637;-29.628;-49.938;2023-02-27T15:43:00;18.00;;;4.43;;
77522;SDS011;66637;-29.628;-49.938;2023-02-27T15:45:32;11.38;;;3.90;;
77522;SDS011;66637;-29.628;-49.938;2023-02-27T15:48:04;23.42;;;4.90;;
77522;SDS011;66637;-29.628;-49.938;2023-02-27T15:50:54;12.00;;;3.30;;
77522;SDS011;66637;-29.628;-49.938;2023-02-27T15:53:28;23.02;;;4.55;;
77522;SDS011;66637;-29.628;-49.938;2023-02-27T15:56:02;19.80;;;4.47;;
77522;SDS011;66637;-29.628;-49.938;2023-02-27T15:58:48;15.07;;;3.67;;
77522;SDS011;66637;-29.628;-49.938;2023-02-27T16:01:22;17.63;;;5.00;;
77522;SDS011;66637;-29.628;-49.938;2023-02-27T16:03:56;19.38;;;4.07;;
77522;SDS011;66637;-29.628;-49.938;2023-02-27T16:06:33;16.05;;;3.72;;
77522;SDS011;66637;-29.628;-49.938;2023-02-27T16:09:24;11.57;;;3.42;;
77522;SDS011;66637;-29.628;-49.938;2023-02-27T16:17:51;24.42;;;5.20;;
77522;SDS011;66637;-29.628;-49.938;2023-02-27T16:23:26;17.40;;;4.72;;
77522;SDS011;66637;-29.628;-49.938;2023-02-27T16:26:04;15.48;;;3.80;;
77522;SDS011;66637;-29.628;-49.938;2023-02-27T16:31:36;12.88;;;4.15;;
77522;SDS011;66637;-29.628;-49.938;2023-02-27T16:37:03;9.75;;;3.45;;
77522;SDS011;66637;-29.628;-49.938;2023-02-27T16:39:33;8.05;;;2.88;;
77522;SDS011;66637;-29.628;-49.938;2023-02-27T16:42:03;12.60;;;3.25;;
77522;SDS011;66637;-29.628;-49.938;2023-02-27T16:44:34;15.88;;;4.40;;
77522;SDS011;66637;-29.628;-49.938;2023-02-27T16:47:05;8.38;;;2.92;;
77522;SDS011;66637;-29.628;-49.938;2023-02-27T16:49:37;18.88;;;4.90;;
77522;SDS011;66637;-29.628;-49.938;2023-02-27T16:52:09;9.20;;;2.88;;
77522;SDS011;66637;-29.628;-49.938;2023-02-27T16:54:41;11.63;;;3.40;;
77522;SDS011;66637;-29.628;-49.938;2023-02-27T16:57:12;15.95;;;3.30;;
77522;SDS011;66637;-29.628;-49.938;2023-02-27T16:59:42;15.18;;;3.80;;
77522;SDS011;66637;-29.628;-49.938;2023-02-27T17:02:13;14.68;;;3.72;;
77522;SDS011;66637;-29.628;-49.938;2023-02-27T17:04:45;14.15;;;3.20;;
77522;SDS011;66637;-29.628;-49.938;2023-02-27T17:07:18;17.88;;;4.82;;
77522;SDS011;66637;-29.628;-49.938;2023-02-27T17:09:49;32.95;;;6.28;;
77522;SDS011;66637;-29.628;-49.938;2023-02-27T17:12:19;20.73;;;4.50;;
77522;SDS011;66637;-29.628;-49.938;2023-02-27T17:14:50;15.63;;;4.03;;
77522;SDS011;66637;-29.628;-49.938;2023-02-27T17:17:21;17.50;;;4.47;;
77522;SDS011;66637;-29.628;-49.938;2023-02-27T17:19:51;15.90;;;4.10;;
77522;SDS011;66637;-29.628;-49.938;2023-02-27T17:22:23;12.52;;;3.53;;
77522;SDS011;66637;-29.628;-49.938;2023-02-27T17:24:54;12.38;;;3.92;;
77522;SDS011;66637;-29.628;-49.938;2023-02-27T17:27:24;25.40;;;4.63;;
77522;SDS011;66637;-29.628;-49.938;2023-02-27T17:29:55;18.38;;;3.70;;
77522;SDS011;66637;-29.628;-49.938;2023-02-27T17:32:25;15.18;;;3.78;;
77522;SDS011;66637;-29.628;-49.938;2023-02-27T17:34:55;16.15;;;3.60;;
77522;SDS011;66637;-29.628;-49.938;2023-02-27T17:37:27;4.85;;;2.25;;
77522;SDS011;66637;-29.628;-49.938;2023-02-27T17:39:57;9.10;;;2.72;;
77522;SDS011;66637;-29.628;-49.938;2023-02-27T17:42:31;10.70;;;3.40;;
77522;SDS011;66637;-29.628;-49.938;2023-02-27T17:45:04;9.05;;;2.58;;
77522;SDS011;66637;-29.628;-49.938;2023-02-27T17:47:36;13.98;;;4.18;;
77522;SDS011;66637;-29.628;-49.938;2023-02-27T17:50:06;19.45;;;4.38;;
77522;SDS011;66637;-29.628;-49.938;2023-02-27T17:52:38;16.02;;;3.53;;
77522;SDS011;66637;-29.628;-49.938;2023-02-27T17:55:08;13.25;;;3.47;;
77522;SDS011;66637;-29.628;-49.938;2023-02-27T17:57:39;10.93;;;3.17;;
77522;SDS011;66637;-29.628;-49.938;2023-02-27T18:00:11;18.00;;;3.35;;
77522;SDS011;66637;-29.628;-49.938;2023-02-27T18:02:43;9.88;;;2.90;;
77522;SDS011;66637;-29.628;-49.938;2023-02-27T18:05:13;23.98;;;5.63;;
77522;SDS011;66637;-29.628;-49.938;2023-02-27T18:07:44;20.08;;;4.13;;
77522;SDS011;66637;-29.628;-49.938;2023-02-27T18:10:14;9.43;;;3.35;;
77522;SDS011;66637;-29.628;-49.938;2023-02-27T18:12:45;20.42;;;4.53;;
77522;SDS011;66637;-29.628;-49.938;2023-02-27T18:15:16;30.98;;;4.55;;
77522;SDS011;66637;-29.628;-49.938;2023-02-27T18:17:46;20.63;;;4.35;;
77522;SDS011;66637;-29.628;-49.938;2023-02-27T18:20:18;15.68;;;3.95;;
77522;SDS011;66637;-29.628;-49.938;2023-02-27T18:22:49;19.42;;;5.03;;
77522;SDS011;66637;-29.628;-49.938;2023-02-27T18:25:19;11.40;;;3.05;;
77522;SDS011;66637;-29.628;-49.938;2023-02-27T18:27:52;22.63;;;4.70;;
77522;SDS011;66637;-29.628;-49.938;2023-02-27T18:30:23;23.73;;;4.55;;